sensor_id;sensor_type;location;lat;lon;timestamp;pressure;altitude;pressure_sealevel;temperature;humidity
6853;BME280;3465;42.144;24.722;2023-07-29T00:01:58;147796.78;;;19.50;52.56
6853;BME280;3465;42.144;24.722;2023-07-29T00:04:23;147816.97;;;19.58;52.64
6853;BME280;3465;42.144;24.722;2023-07-29T00:06:49;147816.97;;;19.58;52.99
6853;BME280;3465;42.144;24.722;2023-07-29T00:09:14;147770.31;;;19.39;53.04
6853;BME280;3465;42.144;24.722;2023-07-29T00:11:39;147765.25;;;19.37;53.31
6853;BME280;3465;42.144;24.722;2023-07-29T00:14:05;147758.97;;;19.35;53.31
6853;BME280;3465;42.144;24.722;2023-07-29T00:16:30;147741.22;;;19.28;54.35
6853;BME280;3465;42.144;24.722;2023-07-29T00:18:56;147743.78;;;19.29;55.12
6853;BME280;3465;42.144;24.722;2023-07-29T00:21:21;147738.72;;;19.27;55.11
6853;BME280;3465;42.144;24.722;2023-07-29T00:23:47;147713.47;;;19.17;55.47
6853;BME280;3465;42.144;24.722;2023-07-29T00:26:12;147712.22;;;19.16;55.38
6853;BME280;3465;42.144;24.722;2023-07-29T00:28:38;147699.59;;;19.11;55.46
6853;BME280;3465;42.144;24.722;2023-07-29T00:31:03;147704.66;;;19.13;55.92
6853;BME280;3465;42.144;24.722;2023-07-29T00:33:28;147710.94;;;19.16;55.84
6853;BME280;3465;42.144;24.722;2023-07-29T00:35:54;147702.13;;;19.12;56.23
6853;BME280;3465;42.144;24.722;2023-07-29T00:38:19;147704.66;;;19.13;56.35
6853;BME280;3465;42.144;24.722;2023-07-29T00:40:46;147705.94;;;19.14;56.14
6853;BME280;3465;42.144;24.722;2023-07-29T00:43:11;147661.78;;;18.96;56.68
6853;BME280;3465;42.144;24.722;2023-07-29T00:45:37;147673.13;;;19.01;56.77
6853;BME280;3465;42.144;24.722;2023-07-29T00:48:03;147612.59;;;18.77;57.43
6853;BME280;3465;42.144;24.722;2023-07-29T00:50:30;147655.44;;;18.94;57.51
6853;BME280;3465;42.144;24.722;2023-07-29T00:52:56;147660.50;;;18.96;57.29
6853;BME280;3465;42.144;24.722;2023-07-29T00:55:22;147650.38;;;18.92;57.56
6853;BME280;3465;42.144;24.722;2023-07-29T00:57:48;147526.84;;;18.42;57.94
6853;BME280;3465;42.144;24.722;2023-07-29T01:00:17;147607.53;;;18.75;57.21
6853;BME280;3465;42.144;24.722;2023-07-29T01:02:43;147615.09;;;18.78;56.99
6853;BME280;3465;42.144;24.722;2023-07-29T01:05:11;147601.25;;;18.72;56.97
6853;BME280;3465;42.144;24.722;2023-07-29T01:13:06;147577.31;;;18.63;58.32
6853;BME280;3465;42.144;24.722;2023-07-29T01:16:01;147468.78;;;18.19;58.38
6853;BME280;3465;42.144;24.722;2023-07-29T01:18:35;147554.56;;;18.53;58.87
6853;BME280;3465;42.144;24.722;2023-07-29T01:21:08;147514.19;;;18.37;59.30
6853;BME280;3465;42.144;24.722;2023-07-29T01:23:34;147514.19;;;18.37;59.15
6853;BME280;3465;42.144;24.722;2023-07-29T01:26:01;147476.41;;;18.22;60.20
6853;BME280;3465;42.144;24.722;2023-07-29T01:28:27;147433.53;;;18.05;60.82
6853;BME280;3465;42.144;24.722;2023-07-29T01:31:18;147400.75;;;17.92;61.76
6853;BME280;3465;42.144;24.722;2023-07-29T01:33:59;147417.13;;;17.99;61.56
6853;BME280;3465;42.144;24.722;2023-07-29T01:36:29;147425.97;;;18.02;61.70
6853;BME280;3465;42.144;24.722;2023-07-29T01:38:57;147385.63;;;17.86;61.94
6853;BME280;3465;42.144;24.722;2023-07-29T01:41:24;147448.63;;;18.11;61.71
6853;BME280;3465;42.144;24.722;2023-07-29T01:43:49;147451.19;;;18.12;60.71
6853;BME280;3465;42.144;24.722;2023-07-29T01:46:15;147475.13;;;18.22;60.39
6853;BME280;3465;42.144;24.722;2023-07-29T01:48:41;147428.47;;;18.03;60.24
6853;BME280;3465;42.144;24.722;2023-07-29T01:51:07;147453.69;;;18.13;60.35
6853;BME280;3465;42.144;24.722;2023-07-29T01:53:33;147444.84;;;18.10;60.83
6853;BME280;3465;42.144;24.722;2023-07-29T01:55:58;147451.19;;;18.12;60.78
6853;BME280;3465;42.144;24.722;2023-07-29T01:58:24;147443.63;;;18.09;61.32
6853;BME280;3465;42.144;24.722;2023-07-29T02:00:50;147378.09;;;17.83;61.65
6853;BME280;3465;42.144;24.722;2023-07-29T02:03:15;147339.03;;;17.68;62.18
6853;BME280;3465;42.144;24.722;2023-07-29T02:05:41;147365.47;;;17.78;62.67
6853;BME280;3465;42.144;24.722;2023-07-29T02:08:09;147352.88;;;17.73;64.37
6853;BME280;3465;42.144;24.722;2023-07-29T02:10:34;147305.00;;;17.54;66.86
6853;BME280;3465;42.144;24.722;2023-07-29T02:13:00;147326.44;;;17.63;66.42
6853;BME280;3465;42.144;24.722;2023-07-29T02:15:25;147297.47;;;17.51;69.38
6853;BME280;3465;42.144;24.722;2023-07-29T02:17:51;147298.72;;;17.52;70.35
6853;BME280;3465;42.144;24.722;2023-07-29T02:20:17;147301.22;;;17.53;69.52
6853;BME280;3465;42.144;24.722;2023-07-29T02:22:42;147302.50;;;17.53;69.41
6853;BME280;3465;42.144;24.722;2023-07-29T02:25:08;147292.41;;;17.49;69.27
6853;BME280;3465;42.144;24.722;2023-07-29T02:27:34;147298.72;;;17.52;69.12
6853;BME280;3465;42.144;24.722;2023-07-29T02:30:00;147223.06;;;17.22;67.68
6853;BME280;3465;42.144;24.722;2023-07-29T02:32:25;147315.09;;;17.58;67.47
6853;BME280;3465;42.144;24.722;2023-07-29T02:34:51;147316.34;;;17.59;66.73
6853;BME280;3465;42.144;24.722;2023-07-29T02:37:16;147318.88;;;17.60;66.13
6853;BME280;3465;42.144;24.722;2023-07-29T02:39:42;147315.09;;;17.58;66.27
6853;BME280;3465;42.144;24.722;2023-07-29T02:42:07;147305.00;;;17.54;66.10
6853;BME280;3465;42.144;24.722;2023-07-29T02:44:33;147307.50;;;17.55;66.90
6853;BME280;3465;42.144;24.722;2023-07-29T02:46:58;147292.41;;;17.49;67.54
6853;BME280;3465;42.144;24.722;2023-07-29T02:49:24;147248.28;;;17.32;68.31
6853;BME280;3465;42.144;24.722;2023-07-29T02:51:49;147263.38;;;17.38;69.04
6853;BME280;3465;42.144;24.722;2023-07-29T02:54:14;147242.00;;;17.29;69.30
6853;BME280;3465;42.144;24.722;2023-07-29T02:56:40;147239.44;;;17.28;69.11
6853;BME280;3465;42.144;24.722;2023-07-29T02:59:05;147239.44;;;17.28;68.92
6853;BME280;3465;42.144;24.722;2023-07-29T03:01:31;147238.22;;;17.28;68.51
6853;BME280;3465;42.144;24.722;2023-07-29T03:03:57;147202.91;;;17.13;68.59
6853;BME280;3465;42.144;24.722;2023-07-29T03:06:22;147230.63;;;17.25;68.61
6853;BME280;3465;42.144;24.722;2023-07-29T03:08:47;147216.78;;;17.19;68.65
6853;BME280;3465;42.144;24.722;2023-07-29T03:11:14;147229.41;;;17.24;68.69
6853;BME280;3465;42.144;24.722;2023-07-29T03:13:40;147197.91;;;17.11;68.60
6853;BME280;3465;42.144;24.722;2023-07-29T03:16:06;147244.50;;;17.30;68.61
6853;BME280;3465;42.144;24.722;2023-07-29T03:18:32;147196.66;;;17.11;69.96
6853;BME280;3465;42.144;24.722;2023-07-29T03:20:57;147112.28;;;16.77;71.10
6853;BME280;3465;42.144;24.722;2023-07-29T03:23:22;147174.00;;;17.02;70.90
6853;BME280;3465;42.144;24.722;2023-07-29T03:25:49;147174.00;;;17.02;71.19
6853;BME280;3465;42.144;24.722;2023-07-29T03:28:16;147090.88;;;16.69;71.27
6853;BME280;3465;42.144;24.722;2023-07-29T03:30:42;147179.00;;;17.04;70.94
6853;BME280;3465;42.144;24.722;2023-07-29T03:33:07;147192.88;;;17.09;70.64
6853;BME280;3465;42.144;24.722;2023-07-29T03:35:32;147202.91;;;17.13;70.30
6853;BME280;3465;42.144;24.722;2023-07-29T03:37:58;147171.44;;;17.01;71.01
6853;BME280;3465;42.144;24.722;2023-07-29T03:40:23;147174.00;;;17.02;70.77
6853;BME280;3465;42.144;24.722;2023-07-29T03:42:48;147155.06;;;16.94;71.42
6853;BME280;3465;42.144;24.722;2023-07-29T03:45:14;147029.13;;;16.44;71.91
6853;BME280;3465;42.144;24.722;2023-07-29T03:47:40;147084.59;;;16.66;72.47
6853;BME280;3465;42.144;24.722;2023-07-29T03:50:05;147099.69;;;16.72;72.40
6853;BME280;3465;42.144;24.722;2023-07-29T03:52:31;147093.41;;;16.70;72.80
6853;BME280;3465;42.144;24.722;2023-07-29T03:54:56;147066.97;;;16.59;73.58
6853;BME280;3465;42.144;24.722;2023-07-29T03:57:22;147069.47;;;16.60;73.39
6853;BME280;3465;42.144;24.722;2023-07-29T03:59:47;147019.09;;;16.40;74.41
6853;BME280;3465;42.144;24.722;2023-07-29T04:02:13;147026.63;;;16.43;74.32
6853;BME280;3465;42.144;24.722;2023-07-29T04:04:38;147026.63;;;16.43;74.57
6853;BME280;3465;42.144;24.722;2023-07-29T04:07:04;147033.00;;;16.46;74.55
6853;BME280;3465;42.144;24.722;2023-07-29T04:09:30;147059.41;;;16.56;74.95
6853;BME280;3465;42.144;24.722;2023-07-29T04:11:55;147043.03;;;16.50;75.11
6853;BME280;3465;42.144;24.722;2023-07-29T04:14:21;147045.53;;;16.51;74.75
6853;BME280;3465;42.144;24.722;2023-07-29T04:16:46;147033.00;;;16.46;75.46
6853;BME280;3465;42.144;24.722;2023-07-29T04:19:11;147066.97;;;16.59;74.96
6853;BME280;3465;42.144;24.722;2023-07-29T04:21:37;147070.72;;;16.61;75.07
6853;BME280;3465;42.144;24.722;2023-07-29T04:24:02;147079.56;;;16.64;74.67
6853;BME280;3465;42.144;24.722;2023-07-29T04:26:28;147090.88;;;16.69;74.30
6853;BME280;3465;42.144;24.722;2023-07-29T04:28:53;147103.47;;;16.74;74.39
6853;BME280;3465;42.144;24.722;2023-07-29T04:31:18;147128.66;;;16.84;73.81
6853;BME280;3465;42.144;24.722;2023-07-29T04:33:44;147129.88;;;16.84;74.10
6853;BME280;3465;42.144;24.722;2023-07-29T04:36:09;147153.84;;;16.94;73.85
6853;BME280;3465;42.144;24.722;2023-07-29T04:38:37;147168.94;;;17.00;73.53
6853;BME280;3465;42.144;24.722;2023-07-29T04:41:02;147156.34;;;16.95;73.52
6853;BME280;3465;42.144;24.722;2023-07-29T04:43:30;147158.84;;;16.96;73.34
6853;BME280;3465;42.144;24.722;2023-07-29T04:45:55;147163.91;;;16.98;74.22
6853;BME280;3465;42.144;24.722;2023-07-29T04:48:21;147145.03;;;16.90;74.07
6853;BME280;3465;42.144;24.722;2023-07-29T04:50:46;147172.72;;;17.01;73.88
6853;BME280;3465;42.144;24.722;2023-07-29T04:53:11;147189.09;;;17.08;73.43
6853;BME280;3465;42.144;24.722;2023-07-29T04:55:37;147219.28;;;17.20;72.70
6853;BME280;3465;42.144;24.722;2023-07-29T04:58:02;147235.66;;;17.27;73.01
6853;BME280;3465;42.144;24.722;2023-07-29T05:00:27;147243.22;;;17.30;72.99
6853;BME280;3465;42.144;24.722;2023-07-29T05:02:53;147249.53;;;17.32;72.48
6853;BME280;3465;42.144;24.722;2023-07-29T05:05:18;147311.28;;;17.57;72.56
6853;BME280;3465;42.144;24.722;2023-07-29T05:07:43;147345.31;;;17.70;71.66
6853;BME280;3465;42.144;24.722;2023-07-29T05:10:09;147332.72;;;17.65;71.06
6853;BME280;3465;42.144;24.722;2023-07-29T05:12:34;147342.81;;;17.69;70.97
6853;BME280;3465;42.144;24.722;2023-07-29T05:15:00;147361.69;;;17.77;70.78
6853;BME280;3465;42.144;24.722;2023-07-29T05:17:25;147374.31;;;17.82;69.48
6853;BME280;3465;42.144;24.722;2023-07-29T05:19:50;147390.69;;;17.88;69.71
6853;BME280;3465;42.144;24.722;2023-07-29T05:22:16;147405.81;;;17.94;68.60
6853;BME280;3465;42.144;24.722;2023-07-29T05:24:41;147413.34;;;17.97;68.97
6853;BME280;3465;42.144;24.722;2023-07-29T05:27:07;147461.22;;;18.16;67.96
6853;BME280;3465;42.144;24.722;2023-07-29T05:29:33;147466.28;;;18.18;68.05
6853;BME280;3465;42.144;24.722;2023-07-29T05:31:59;147485.19;;;18.26;67.99
6853;BME280;3465;42.144;24.722;2023-07-29T05:34:24;147545.75;;;18.50;67.46
6853;BME280;3465;42.144;24.722;2023-07-29T05:36:50;147567.19;;;18.59;66.83
6853;BME280;3465;42.144;24.722;2023-07-29T05:39:15;147605.03;;;18.74;66.70
6853;BME280;3465;42.144;24.722;2023-07-29T05:41:40;147626.44;;;18.82;66.27
6853;BME280;3465;42.144;24.722;2023-07-29T05:44:06;147647.88;;;18.91;66.19
6853;BME280;3465;42.144;24.722;2023-07-29T05:46:31;147673.13;;;19.01;65.85
6853;BME280;3465;42.144;24.722;2023-07-29T05:48:56;147668.06;;;18.99;65.38
6853;BME280;3465;42.144;24.722;2023-07-29T05:51:22;147714.72;;;19.17;64.50
6853;BME280;3465;42.144;24.722;2023-07-29T05:53:47;147746.34;;;19.30;64.03
6853;BME280;3465;42.144;24.722;2023-07-29T05:56:13;147751.34;;;19.32;64.26
6853;BME280;3465;42.144;24.722;2023-07-29T05:58:39;147770.31;;;19.39;64.68
6853;BME280;3465;42.144;24.722;2023-07-29T06:01:05;147805.63;;;19.53;63.56
6853;BME280;3465;42.144;24.722;2023-07-29T06:03:30;147838.44;;;19.66;62.36
6853;BME280;3465;42.144;24.722;2023-07-29T06:05:56;147882.59;;;19.84;61.50
6853;BME280;3465;42.144;24.722;2023-07-29T06:08:21;147920.47;;;19.99;60.73
6853;BME280;3465;42.144;24.722;2023-07-29T06:10:47;147953.25;;;20.12;59.96
6853;BME280;3465;42.144;24.722;2023-07-29T06:13:12;148029.09;;;20.42;58.84
6853;BME280;3465;42.144;24.722;2023-07-29T06:15:37;148077.06;;;20.61;58.94
6853;BME280;3465;42.144;24.722;2023-07-29T06:18:03;148141.47;;;20.87;57.82
6853;BME280;3465;42.144;24.722;2023-07-29T06:20:28;148160.41;;;20.94;56.95
6853;BME280;3465;42.144;24.722;2023-07-29T06:22:54;148280.47;;;21.42;55.03
6853;BME280;3465;42.144;24.722;2023-07-29T06:25:19;148338.59;;;21.65;53.84
6853;BME280;3465;42.144;24.722;2023-07-29T06:27:45;148398.03;;;21.89;53.61
6853;BME280;3465;42.144;24.722;2023-07-29T06:30:10;148492.88;;;22.26;53.21
6853;BME280;3465;42.144;24.722;2023-07-29T06:32:36;148592.81;;;22.66;51.65
6853;BME280;3465;42.144;24.722;2023-07-29T06:35:01;148677.56;;;23.00;48.74
6853;BME280;3465;42.144;24.722;2023-07-29T06:37:27;148764.97;;;23.34;46.98
6853;BME280;3465;42.144;24.722;2023-07-29T06:39:52;148789.00;;;23.44;46.60
6853;BME280;3465;42.144;24.722;2023-07-29T06:42:18;149062.50;;;24.52;44.68
6853;BME280;3465;42.144;24.722;2023-07-29T06:44:43;149375.59;;;25.76;42.30
6853;BME280;3465;42.144;24.722;2023-07-29T06:47:11;149680.09;;;26.97;39.30
6853;BME280;3465;42.144;24.722;2023-07-29T06:49:36;149974.72;;;28.13;36.77
6853;BME280;3465;42.144;24.722;2023-07-29T06:52:02;150225.03;;;29.12;34.33
6853;BME280;3465;42.144;24.722;2023-07-29T06:54:27;150381.47;;;29.74;33.60
6853;BME280;3465;42.144;24.722;2023-07-29T06:56:52;150612.94;;;30.65;32.19
6853;BME280;3465;42.144;24.722;2023-07-29T06:59:18;150576.06;;;30.50;31.95
6853;BME280;3465;42.144;24.722;2023-07-29T07:01:43;150789.88;;;31.35;31.06
6853;BME280;3465;42.144;24.722;2023-07-29T07:04:09;150900.66;;;31.78;30.29
6853;BME280;3465;42.144;24.722;2023-07-29T07:06:34;151119.75;;;32.65;29.58
6853;BME280;3465;42.144;24.722;2023-07-29T07:09:00;151333.94;;;33.49;27.77
6853;BME280;3465;42.144;24.722;2023-07-29T07:11:25;151594.13;;;34.51;26.44
6853;BME280;3465;42.144;24.722;2023-07-29T07:13:50;151446.16;;;33.93;26.83
6853;BME280;3465;42.144;24.722;2023-07-29T07:16:16;151731.91;;;35.06;25.58
6853;BME280;3465;42.144;24.722;2023-07-29T07:18:41;151938.78;;;35.87;24.57
6853;BME280;3465;42.144;24.722;2023-07-29T07:21:07;151998.78;;;36.11;24.04
6853;BME280;3465;42.144;24.722;2023-07-29T07:23:32;152058.81;;;36.34;23.52
6853;BME280;3465;42.144;24.722;2023-07-29T07:25:57;152148.25;;;36.69;23.48
6853;BME280;3465;42.144;24.722;2023-07-29T07:28:23;152470.31;;;37.96;22.17
6853;BME280;3465;42.144;24.722;2023-07-29T07:30:48;152388.50;;;37.64;22.23
6853;BME280;3465;42.144;24.722;2023-07-29T07:33:14;152300.31;;;37.29;22.19
6853;BME280;3465;42.144;24.722;2023-07-29T07:35:39;152218.50;;;36.97;22.90
6853;BME280;3465;42.144;24.722;2023-07-29T07:38:07;152261.97;;;37.14;22.47
6853;BME280;3465;42.144;24.722;2023-07-29T07:40:35;152394.84;;;37.66;22.13
6853;BME280;3465;42.144;24.722;2023-07-29T07:43:01;152323.34;;;37.38;22.33
6853;BME280;3465;42.144;24.722;2023-07-29T07:45:26;152125.22;;;36.60;22.82
6853;BME280;3465;42.144;24.722;2023-07-29T07:47:54;152278.56;;;37.20;23.07
6853;BME280;3465;42.144;24.722;2023-07-29T07:50:20;152495.91;;;38.06;22.39
6853;BME280;3465;42.144;24.722;2023-07-29T07:52:45;152648.09;;;38.66;21.43
6853;BME280;3465;42.144;24.722;2023-07-29T07:55:11;152747.91;;;39.05;20.97
6853;BME280;3465;42.144;24.722;2023-07-29T07:57:36;152297.75;;;37.28;22.53
6853;BME280;3465;42.144;24.722;2023-07-29T08:00:02;152645.56;;;38.65;21.50
6853;BME280;3465;42.144;24.722;2023-07-29T08:02:29;151887.66;;;35.67;23.83
6853;BME280;3465;42.144;24.722;2023-07-29T08:04:54;151961.75;;;35.96;24.02
6853;BME280;3465;42.144;24.722;2023-07-29T08:07:20;152129.06;;;36.62;23.67
6853;BME280;3465;42.144;24.722;2023-07-29T08:09:45;152426.84;;;37.79;22.65
6853;BME280;3465;42.144;24.722;2023-07-29T08:12:10;152875.88;;;39.55;21.57
6853;BME280;3465;42.144;24.722;2023-07-29T08:14:36;152959.03;;;39.87;20.79
6853;BME280;3465;42.144;24.722;2023-07-29T08:17:01;153093.50;;;40.40;20.35
6853;BME280;3465;42.144;24.722;2023-07-29T08:19:27;153318.91;;;41.29;19.66
6853;BME280;3465;42.144;24.722;2023-07-29T08:21:52;153527.78;;;42.10;18.85
6853;BME280;3465;42.144;24.722;2023-07-29T08:24:18;153616.22;;;42.45;19.04
6853;BME280;3465;42.144;24.722;2023-07-29T08:26:43;153684.19;;;42.72;18.71
6853;BME280;3465;42.144;24.722;2023-07-29T08:29:09;153316.34;;;41.28;19.54
6853;BME280;3465;42.144;24.722;2023-07-29T08:31:34;153129.34;;;40.54;19.67
6853;BME280;3465;42.144;24.722;2023-07-29T08:34:00;153026.88;;;40.14;19.69
6853;BME280;3465;42.144;24.722;2023-07-29T08:36:26;153151.09;;;40.63;19.61
6853;BME280;3465;42.144;24.722;2023-07-29T08:38:51;153071.72;;;40.32;19.92
6853;BME280;3465;42.144;24.722;2023-07-29T08:41:21;153003.84;;;40.05;20.27
6853;BME280;3465;42.144;24.722;2023-07-29T08:43:57;153171.63;;;40.71;20.01
6853;BME280;3465;42.144;24.722;2023-07-29T08:46:25;153174.19;;;40.72;19.83
6853;BME280;3465;42.144;24.722;2023-07-29T08:48:52;153425.28;;;41.70;19.07
6853;BME280;3465;42.144;24.722;2023-07-29T08:51:19;153611.09;;;42.43;18.82
6853;BME280;3465;42.144;24.722;2023-07-29T08:53:45;153676.44;;;42.69;17.93
6853;BME280;3465;42.144;24.722;2023-07-29T08:56:11;153880.38;;;43.48;18.24
6853;BME280;3465;42.144;24.722;2023-07-29T08:58:37;154015.13;;;44.01;17.42
6853;BME280;3465;42.144;24.722;2023-07-29T09:01:04;154106.22;;;44.37;16.65
6853;BME280;3465;42.144;24.722;2023-07-29T09:03:29;154042.03;;;44.12;16.58
6853;BME280;3465;42.144;24.722;2023-07-29T09:05:57;153984.25;;;43.89;16.82
6853;BME280;3465;42.144;24.722;2023-07-29T09:08:24;153938.13;;;43.71;17.40
6853;BME280;3465;42.144;24.722;2023-07-29T09:10:50;154020.25;;;44.03;17.32
6853;BME280;3465;42.144;24.722;2023-07-29T09:13:16;154053.59;;;44.16;16.48
6853;BME280;3465;42.144;24.722;2023-07-29T09:15:41;154043.31;;;44.12;16.90
6853;BME280;3465;42.144;24.722;2023-07-29T09:18:20;154029.19;;;44.07;16.34
6853;BME280;3465;42.144;24.722;2023-07-29T09:20:47;153788.06;;;43.12;17.60
6853;BME280;3465;42.144;24.722;2023-07-29T09:23:13;153839.38;;;43.32;18.16
6853;BME280;3465;42.144;24.722;2023-07-29T09:25:39;154007.44;;;43.98;16.81
6853;BME280;3465;42.144;24.722;2023-07-29T09:28:13;154085.72;;;44.29;16.90
6853;BME280;3465;42.144;24.722;2023-07-29T09:30:40;154043.31;;;44.12;16.28
6853;BME280;3465;42.144;24.722;2023-07-29T09:33:06;153781.63;;;43.10;17.28
6853;BME280;3465;42.144;24.722;2023-07-29T09:35:33;153863.72;;;43.42;16.64
6853;BME280;3465;42.144;24.722;2023-07-29T09:38:00;153745.75;;;42.96;16.82
6853;BME280;3465;42.144;24.722;2023-07-29T09:40:25;153831.69;;;43.29;17.13
6853;BME280;3465;42.144;24.722;2023-07-29T09:42:55;153720.09;;;42.86;16.79
6853;BME280;3465;42.144;24.722;2023-07-29T09:45:21;153385.53;;;41.55;17.01
6853;BME280;3465;42.144;24.722;2023-07-29T09:47:47;153425.28;;;41.70;16.16
6853;BME280;3465;42.144;24.722;2023-07-29T09:50:13;153281.78;;;41.14;17.25
6853;BME280;3465;42.144;24.722;2023-07-29T09:52:39;153450.84;;;41.80;17.03
6853;BME280;3465;42.144;24.722;2023-07-29T09:55:05;152901.41;;;39.65;18.66
6853;BME280;3465;42.144;24.722;2023-07-29T09:57:31;152591.78;;;38.43;19.86
6853;BME280;3465;42.144;24.722;2023-07-29T09:59:57;152461.38;;;37.92;19.95
6853;BME280;3465;42.144;24.722;2023-07-29T10:02:23;152162.25;;;36.75;20.99
6853;BME280;3465;42.144;24.722;2023-07-29T10:04:51;152219.78;;;36.97;20.80
6853;BME280;3465;42.144;24.722;2023-07-29T10:07:17;152388.50;;;37.64;19.89
6853;BME280;3465;42.144;24.722;2023-07-29T10:09:45;152406.41;;;37.71;19.68
6853;BME280;3465;42.144;24.722;2023-07-29T10:12:11;152341.19;;;37.45;19.72
6853;BME280;3465;42.144;24.722;2023-07-29T10:14:38;152610.97;;;38.51;19.51
6853;BME280;3465;42.144;24.722;2023-07-29T10:17:05;152728.69;;;38.97;18.80
6853;BME280;3465;42.144;24.722;2023-07-29T10:19:31;153038.41;;;40.19;18.02
6853;BME280;3465;42.144;24.722;2023-07-29T10:21:59;153423.97;;;41.70;16.99
6853;BME280;3465;42.144;24.722;2023-07-29T10:24:30;153634.19;;;42.52;16.35
6853;BME280;3465;42.144;24.722;2023-07-29T10:26:59;153716.25;;;42.84;15.90
6853;BME280;3465;42.144;24.722;2023-07-29T10:29:30;153398.34;;;41.60;16.15
6853;BME280;3465;42.144;24.722;2023-07-29T10:32:01;152839.97;;;39.41;17.98
6853;BME280;3465;42.144;24.722;2023-07-29T10:34:29;152437.09;;;37.83;19.49
6853;BME280;3465;42.144;24.722;2023-07-29T10:36:55;152600.75;;;38.47;18.97
6853;BME280;3465;42.144;24.722;2023-07-29T10:39:21;152699.25;;;38.86;18.73
6853;BME280;3465;42.144;24.722;2023-07-29T10:42:05;152715.88;;;38.92;18.76
6853;BME280;3465;42.144;24.722;2023-07-29T10:49:43;153222.81;;;40.91;17.33
6853;BME280;3465;42.144;24.722;2023-07-29T10:52:08;153476.47;;;41.90;16.58
6853;BME280;3465;42.144;24.722;2023-07-29T10:54:47;152925.78;;;39.74;17.69
6853;BME280;3465;42.144;24.722;2023-07-29T10:59:58;153035.88;;;40.18;17.13
6853;BME280;3465;42.144;24.722;2023-07-29T11:02:32;152810.59;;;39.29;18.00
6853;BME280;3465;42.144;24.722;2023-07-29T11:04:58;152860.47;;;39.49;18.20
6853;BME280;3465;42.144;24.722;2023-07-29T11:07:27;153102.44;;;40.44;17.23
6853;BME280;3465;42.144;24.722;2023-07-29T11:10:00;152841.25;;;39.41;17.83
6853;BME280;3465;42.144;24.722;2023-07-29T11:12:35;152774.72;;;39.15;17.88
6853;BME280;3465;42.144;24.722;2023-07-29T11:17:43;152339.94;;;37.45;19.33
6853;BME280;3465;42.144;24.722;2023-07-29T11:20:09;152380.81;;;37.61;19.13
6853;BME280;3465;42.144;24.722;2023-07-29T11:22:36;152672.38;;;38.75;18.78
6853;BME280;3465;42.144;24.722;2023-07-29T11:25:02;152900.19;;;39.64;18.32
6853;BME280;3465;42.144;24.722;2023-07-29T11:27:27;152989.78;;;40.00;19.67
6853;BME280;3465;42.144;24.722;2023-07-29T11:30:04;152861.78;;;39.49;18.77
6853;BME280;3465;42.144;24.722;2023-07-29T11:32:34;152924.47;;;39.74;17.31
6853;BME280;3465;42.144;24.722;2023-07-29T11:35:14;152895.03;;;39.62;17.65
6853;BME280;3465;42.144;24.722;2023-07-29T11:37:45;152850.28;;;39.45;18.14
6853;BME280;3465;42.144;24.722;2023-07-29T11:40:16;152924.47;;;39.74;17.30
6853;BME280;3465;42.144;24.722;2023-07-29T11:42:43;153016.63;;;40.10;17.65
6853;BME280;3465;42.144;24.722;2023-07-29T11:45:09;153069.19;;;40.31;17.14
6853;BME280;3465;42.144;24.722;2023-07-29T11:47:35;152870.75;;;39.53;17.52
6853;BME280;3465;42.144;24.722;2023-07-29T11:50:05;152666.00;;;38.73;17.98
6853;BME280;3465;42.144;24.722;2023-07-29T11:52:32;152603.28;;;38.48;18.26
6853;BME280;3465;42.144;24.722;2023-07-29T11:55:00;152416.66;;;37.75;18.59
6853;BME280;3465;42.144;24.722;2023-07-29T11:57:26;152320.75;;;37.37;18.56
6853;BME280;3465;42.144;24.722;2023-07-29T11:59:52;152269.63;;;37.17;19.06
6853;BME280;3465;42.144;24.722;2023-07-29T12:02:20;152296.47;;;37.27;19.77
6853;BME280;3465;42.144;24.722;2023-07-29T12:04:47;152406.41;;;37.71;18.65
6853;BME280;3465;42.144;24.722;2023-07-29T12:07:14;152600.75;;;38.47;18.95
6853;BME280;3465;42.144;24.722;2023-07-29T12:09:41;152715.88;;;38.92;18.43
6853;BME280;3465;42.144;24.722;2023-07-29T12:12:07;152819.50;;;39.33;18.50
6853;BME280;3465;42.144;24.722;2023-07-29T12:14:33;153025.59;;;40.14;17.62
6853;BME280;3465;42.144;24.722;2023-07-29T12:17:00;153101.19;;;40.43;16.92
6853;BME280;3465;42.144;24.722;2023-07-29T12:19:34;152955.22;;;39.86;17.51
6853;BME280;3465;42.144;24.722;2023-07-29T12:22:01;152838.72;;;39.40;17.88
6853;BME280;3465;42.144;24.722;2023-07-29T12:24:26;152467.75;;;37.95;18.77
6853;BME280;3465;42.144;24.722;2023-07-29T12:26:52;152039.63;;;36.27;19.91
6853;BME280;3465;42.144;24.722;2023-07-29T12:29:19;152040.91;;;36.27;20.34
6853;BME280;3465;42.144;24.722;2023-07-29T12:31:47;152121.41;;;36.59;19.92
6853;BME280;3465;42.144;24.722;2023-07-29T12:34:19;152178.91;;;36.81;19.89
6853;BME280;3465;42.144;24.722;2023-07-29T12:36:50;152102.25;;;36.51;20.05
6853;BME280;3465;42.144;24.722;2023-07-29T12:39:20;152129.06;;;36.62;19.60
6853;BME280;3465;42.144;24.722;2023-07-29T12:41:47;152056.28;;;36.33;20.40
6853;BME280;3465;42.144;24.722;2023-07-29T12:44:13;151922.13;;;35.80;20.55
6853;BME280;3465;42.144;24.722;2023-07-29T12:46:38;151752.34;;;35.14;20.94
6853;BME280;3465;42.144;24.722;2023-07-29T12:49:04;151731.91;;;35.06;20.94
6853;BME280;3465;42.144;24.722;2023-07-29T12:51:29;151647.69;;;34.72;21.34
6853;BME280;3465;42.144;24.722;2023-07-29T12:53:55;151525.22;;;34.24;20.67
6853;BME280;3465;42.144;24.722;2023-07-29T12:56:20;151472.94;;;34.04;20.79
6853;BME280;3465;42.144;24.722;2023-07-29T12:58:46;151614.53;;;34.59;21.82
6853;BME280;3465;42.144;24.722;2023-07-29T13:01:11;151627.28;;;34.64;21.58
6853;BME280;3465;42.144;24.722;2023-07-29T13:03:42;151640.06;;;34.69;21.00
6853;BME280;3465;42.144;24.722;2023-07-29T13:06:07;151537.97;;;34.29;21.06
6853;BME280;3465;42.144;24.722;2023-07-29T13:08:33;151594.13;;;34.51;22.15
6853;BME280;3465;42.144;24.722;2023-07-29T13:10:58;151606.88;;;34.56;20.85
6853;BME280;3465;42.144;24.722;2023-07-29T13:13:23;151628.59;;;34.65;20.75